Time;durP1;ratioP1;P1;durP2;ratioP2;P2;SDS_P1;SDS_P2;PMS_P1;PMS_P2;Temp;Humidity;BMP_temperature;BMP_pressure;BME280_temperature;BME280_humidity;BME280_pressure;Samples;Min_cycle;Max_cycle;Signal;HPM_P1;HPM_P2
2021/06/16 00:00:01;;;;;;;10.30;9.60;;;23.90;76.30;;;;;;5052159;28;21051;-52
2021/06/16 00:02:29;;;;;;;10.57;9.67;;;23.90;76.80;;;;;;5051787;28;20697;-51
2021/06/16 00:04:56;;;;;;;10.50;9.60;;;23.80;77.10;;;;;;5052015;28;20629;-51
2021/06/16 00:07:24;;;;;;;10.03;9.07;;;23.80;77.40;;;;;;5051329;28;20752;-51
2021/06/16 00:09:51;;;;;;;11.57;10.67;;;23.80;77.70;;;;;;5052023;28;20641;-52
2021/06/16 00:12:18;;;;;;;11.43;10.50;;;23.80;77.70;;;;;;5052018;28;20653;-51
2021/06/16 00:14:45;;;;;;;10.90;10.00;;;23.80;77.70;;;;;;5035886;28;20639;-52
2021/06/16 00:17:12;;;;;;;10.80;9.90;;;23.80;77.80;;;;;;5049762;28;20692;-51
2021/06/16 00:19:41;;;;;;;11.50;10.40;;;23.70;78.10;;;;;;5051755;28;21037;-52
2021/06/16 00:22:08;;;;;;;12.17;11.00;;;23.70;78.70;;;;;;5036852;28;20650;-52
2021/06/16 00:24:35;;;;;;;10.87;9.97;;;23.60;78.80;;;;;;5031725;28;20631;-52
2021/06/16 00:27:03;;;;;;;11.50;10.50;;;23.60;79.40;;;;;;5032344;28;21269;-51
2021/06/16 00:29:31;;;;;;;12.87;10.73;;;23.50;79.60;;;;;;5051254;28;21376;-52
2021/06/16 00:31:58;;;;;;;11.60;10.60;;;23.40;79.90;;;;;;5051206;28;20645;-52
2021/06/16 00:34:25;;;;;;;10.90;10.00;;;23.30;80.30;;;;;;5033040;28;20979;-52
2021/06/16 00:36:54;;;;;;;11.33;10.30;;;23.30;80.70;;;;;;5032044;28;20655;-51
2021/06/16 00:39:21;;;;;;;11.37;10.60;;;23.20;81.20;;;;;;5032002;28;21157;-53
2021/06/16 00:41:48;;;;;;;12.80;11.80;;;23.10;81.60;;;;;;5031676;28;20627;-52
2021/06/16 00:44:15;;;;;;;11.20;10.23;;;23.10;82.10;;;;;;5048999;28;20725;-52
2021/06/16 00:46:43;;;;;;;11.60;10.70;;;23.00;82.50;;;;;;5049167;28;20721;-51
2021/06/16 00:49:10;;;;;;;13.30;11.80;;;23.00;83.10;;;;;;5051031;28;20626;-51
2021/06/16 00:51:37;;;;;;;11.53;10.43;;;22.90;83.50;;;;;;5050507;28;20661;-51
2021/06/16 00:54:10;;;;;;;11.83;10.83;;;22.80;84.00;;;;;;5033853;28;20662;-51
2021/06/16 00:56:38;;;;;;;11.87;10.87;;;22.80;84.50;;;;;;5030668;28;20698;-51
2021/06/16 00:59:06;;;;;;;13.07;11.97;;;22.80;84.80;;;;;;5031586;28;20667;-53
2021/06/16 01:01:33;;;;;;;12.73;11.63;;;22.80;85.20;;;;;;5030906;28;20662;-53
2021/06/16 01:04:06;;;;;;;12.17;11.07;;;22.80;85.40;;;;;;5046622;28;20627;-53
2021/06/16 01:06:36;;;;;;;11.33;10.50;;;22.70;86.10;;;;;;5049513;28;20654;-53
2021/06/16 01:09:07;;;;;;;12.47;11.30;;;22.70;85.90;;;;;;5050192;28;20661;-53
2021/06/16 01:11:36;;;;;;;12.17;11.27;;;22.60;86.30;;;;;;5050841;28;20661;-52
2021/06/16 01:14:09;;;;;;;11.97;10.67;;;22.50;86.70;;;;;;5047323;28;20654;-52
2021/06/16 01:16:39;;;;;;;14.80;11.40;;;22.50;87.20;;;;;;5050371;28;20684;-53
2021/06/16 01:19:08;;;;;;;14.07;12.90;;;22.40;87.70;;;;;;5050871;28;20658;-52
2021/06/16 01:21:37;;;;;;;12.70;11.73;;;22.40;88.10;;;;;;5050601;28;20650;-52
2021/06/16 01:24:07;;;;;;;12.07;10.97;;;22.30;88.40;;;;;;5033093;28;20659;-51
2021/06/16 01:26:36;;;;;;;11.90;10.80;;;22.30;88.80;;;;;;5030405;28;20646;-51
2021/06/16 01:29:10;;;;;;;13.90;12.70;;;22.30;89.00;;;;;;5029901;28;20687;-53
2021/06/16 01:31:37;;;;;;;12.90;11.67;;;22.30;89.20;;;;;;5046576;28;20815;-52
2021/06/16 01:34:04;;;;;;;11.37;10.47;;;22.30;89.50;;;;;;5032643;28;21140;-51
2021/06/16 01:36:31;;;;;;;12.03;10.93;;;22.30;89.60;;;;;;5046910;28;20749;-51
2021/06/16 01:38:58;;;;;;;12.90;11.70;;;22.20;89.60;;;;;;5030455;28;20662;-51
2021/06/16 01:41:26;;;;;;;12.97;11.77;;;22.20;89.90;;;;;;5030273;28;20630;-51
2021/06/16 01:43:55;;;;;;;13.37;12.17;;;22.20;90.10;;;;;;5031100;28;20673;-51
2021/06/16 01:46:23;;;;;;;14.00;12.83;;;22.10;90.10;;;;;;5041345;28;20668;-50
2021/06/16 01:48:50;;;;;;;12.33;11.27;;;22.20;90.30;;;;;;5049294;28;21044;-50
2021/06/16 01:51:17;;;;;;;12.27;11.20;;;22.10;90.40;;;;;;5050081;28;20662;-51
2021/06/16 01:53:45;;;;;;;12.40;11.40;;;22.10;90.50;;;;;;5035537;28;20666;-51
2021/06/16 01:56:12;;;;;;;14.50;13.17;;;22.10;90.50;;;;;;5047454;28;20767;-51
2021/06/16 01:58:39;;;;;;;13.53;12.37;;;22.10;90.60;;;;;;5050095;28;20682;-52
2021/06/16 02:01:08;;;;;;;13.17;12.17;;;22.10;90.70;;;;;;5046850;28;20622;-51
2021/06/16 02:03:35;;;;;;;13.37;12.27;;;22.00;90.90;;;;;;5045705;28;20657;-51
2021/06/16 02:06:02;;;;;;;12.70;11.63;;;22.00;90.90;;;;;;5050002;28;20670;-51
2021/06/16 02:08:30;;;;;;;13.37;12.00;;;22.00;91.00;;;;;;5049607;28;20712;-51
2021/06/16 02:10:57;;;;;;;12.73;11.70;;;22.00;91.00;;;;;;5049084;28;20991;-52
2021/06/16 02:13:26;;;;;;;12.83;11.77;;;22.00;91.10;;;;;;5039930;28;20720;-51
2021/06/16 02:15:55;;;;;;;12.47;11.33;;;22.00;91.10;;;;;;5039710;28;20978;-51
2021/06/16 02:18:28;;;;;;;12.40;11.37;;;22.00;91.10;;;;;;5030151;28;20647;-51
2021/06/16 02:20:55;;;;;;;14.10;12.77;;;22.00;91.20;;;;;;5029646;28;20654;-51
2021/06/16 02:23:22;;;;;;;13.33;12.37;;;22.00;91.20;;;;;;5043055;28;20626;-51
2021/06/16 02:25:50;;;;;;;13.67;12.30;;;22.00;91.30;;;;;;5049256;28;20661;-51
2021/06/16 02:28:17;;;;;;;13.97;12.87;;;22.00;91.30;;;;;;5046578;28;20765;-52
2021/06/16 02:30:44;;;;;;;13.47;12.47;;;21.90;91.40;;;;;;5049297;28;20662;-51
2021/06/16 02:33:11;;;;;;;14.67;13.37;;;22.00;91.50;;;;;;5036741;28;20696;-52
2021/06/16 02:35:40;;;;;;;13.50;12.50;;;22.00;91.50;;;;;;5029336;28;20729;-52
2021/06/16 02:38:09;;;;;;;13.47;12.37;;;22.00;91.40;;;;;;5029207;28;20670;-52
2021/06/16 02:40:37;;;;;;;14.27;13.23;;;22.00;91.30;;;;;;5029370;28;20627;-52
2021/06/16 02:43:04;;;;;;;13.43;12.37;;;22.00;91.30;;;;;;5043787;28;20634;-52
2021/06/16 02:45:31;;;;;;;14.67;13.33;;;22.10;91.80;;;;;;5053280;28;20695;-52
2021/06/16 02:47:59;;;;;;;13.20;12.00;;;22.10;91.50;;;;;;5052813;28;21222;-52
2021/06/16 02:50:27;;;;;;;12.80;11.70;;;22.10;91.40;;;;;;5052880;28;20660;-52
2021/06/16 02:52:58;;;;;;;14.77;13.23;;;22.10;91.30;;;;;;5042635;28;20669;-52
2021/06/16 02:55:25;;;;;;;14.53;13.23;;;22.10;91.30;;;;;;5033862;28;20779;-52
2021/06/16 02:57:53;;;;;;;12.80;11.80;;;22.10;91.30;;;;;;5034225;28;20698;-51
2021/06/16 03:00:21;;;;;;;12.73;11.83;;;22.10;91.30;;;;;;5033075;28;20659;-52
2021/06/16 03:02:49;;;;;;;11.87;10.90;;;22.10;91.40;;;;;;5041143;28;20658;-52
2021/06/16 03:05:18;;;;;;;12.77;11.57;;;22.10;91.40;;;;;;5052946;28;20657;-52
2021/06/16 03:07:45;;;;;;;13.20;12.10;;;22.10;91.50;;;;;;5051346;28;20757;-51
2021/06/16 03:10:15;;;;;;;12.50;11.50;;;22.10;91.50;;;;;;5052419;28;20673;-52
2021/06/16 03:12:43;;;;;;;13.97;12.73;;;22.10;91.50;;;;;;5042683;28;20770;-51
2021/06/16 03:15:11;;;;;;;13.30;12.20;;;22.10;91.40;;;;;;5032649;28;20666;-51
2021/06/16 03:17:38;;;;;;;12.70;11.73;;;22.10;91.50;;;;;;5032750;28;20797;-52
2021/06/16 03:20:06;;;;;;;14.10;12.63;;;22.20;91.50;;;;;;5032738;28;20659;-51
2021/06/16 03:22:34;;;;;;;13.47;12.40;;;22.10;91.50;;;;;;5035270;28;20669;-50
2021/06/16 03:25:01;;;;;;;17.00;12.40;;;22.10;91.50;;;;;;5033930;28;20974;-52
2021/06/16 03:27:29;;;;;;;12.23;11.30;;;22.20;91.50;;;;;;5032574;28;21008;-52
2021/06/16 03:29:57;;;;;;;12.57;11.57;;;22.20;91.50;;;;;;5032986;28;20765;-52
2021/06/16 03:32:24;;;;;;;13.37;12.33;;;22.20;91.40;;;;;;5041523;28;21047;-52
2021/06/16 03:34:51;;;;;;;12.33;11.40;;;22.20;91.40;;;;;;5051518;28;20626;-51
2021/06/16 03:37:19;;;;;;;12.30;11.30;;;22.20;91.40;;;;;;5051832;28;20693;-52
2021/06/16 03:39:46;;;;;;;13.20;12.03;;;22.10;91.40;;;;;;5052305;28;20634;-51
2021/06/16 03:42:13;;;;;;;15.53;14.20;;;22.10;91.70;;;;;;5043732;28;20662;-52
2021/06/16 03:44:42;;;;;;;13.20;11.83;;;22.10;91.50;;;;;;5032384;28;20929;-52
2021/06/16 03:47:09;;;;;;;14.47;13.30;;;22.10;91.50;;;;;;5031504;28;20661;-52
2021/06/16 03:49:36;;;;;;;13.63;12.53;;;22.10;91.50;;;;;;5031828;28;20937;-51
2021/06/16 03:52:05;;;;;;;14.60;13.30;;;22.10;91.50;;;;;;5034589;28;20938;-52
2021/06/16 03:54:32;;;;;;;12.87;11.83;;;22.10;91.60;;;;;;5031714;28;21144;-51
2021/06/16 03:56:59;;;;;;;13.10;12.10;;;22.10;91.60;;;;;;5031910;28;20730;-51
2021/06/16 03:59:26;;;;;;;18.67;13.17;;;22.10;91.60;;;;;;5031761;28;20665;-52
2021/06/16 04:01:55;;;;;;;12.17;11.07;;;22.10;91.70;;;;;;5042668;28;21040;-51
2021/06/16 04:04:23;;;;;;;13.33;12.23;;;22.10;91.70;;;;;;5051137;28;20666;-52
2021/06/16 04:06:50;;;;;;;14.60;13.50;;;22.10;91.70;;;;;;5048229;28;21442;-52
2021/06/16 04:09:17;;;;;;;14.17;12.97;;;22.10;91.70;;;;;;5050616;28;21073;-52
2021/06/16 04:11:45;;;;;;;12.23;11.23;;;22.10;91.70;;;;;;5044853;28;20769;-51
2021/06/16 04:14:12;;;;;;;12.73;11.63;;;22.10;91.80;;;;;;5047885;28;20650;-51
2021/06/16 04:16:41;;;;;;;14.17;13.07;;;22.00;91.70;;;;;;5050353;28;20672;-51
2021/06/16 04:19:10;;;;;;;12.73;11.70;;;22.00;91.70;;;;;;5051207;28;20682;-52
2021/06/16 04:21:37;;;;;;;14.40;13.10;;;22.10;91.80;;;;;;5050669;28;20661;-52
2021/06/16 04:24:05;;;;;;;14.03;12.60;;;22.10;91.80;;;;;;5051008;28;20824;-52
2021/06/16 04:26:32;;;;;;;18.30;12.67;;;22.10;91.80;;;;;;5050636;28;20638;-52
2021/06/16 04:28:59;;;;;;;13.07;11.87;;;22.10;91.80;;;;;;5040620;28;20619;-51
2021/06/16 04:31:27;;;;;;;12.90;11.70;;;22.10;91.80;;;;;;5031427;28;20975;-52
2021/06/16 04:33:54;;;;;;;15.10;12.27;;;22.10;91.80;;;;;;5041640;28;20657;-52
2021/06/16 04:36:22;;;;;;;13.77;12.57;;;22.10;91.70;;;;;;5051452;28;20622;-52
2021/06/16 04:38:50;;;;;;;13.93;12.67;;;22.10;91.60;;;;;;5046242;28;20850;-52
2021/06/16 04:41:17;;;;;;;13.17;12.10;;;22.10;91.60;;;;;;5048487;28;20665;-51
2021/06/16 04:43:44;;;;;;;13.20;12.00;;;22.20;91.60;;;;;;5050661;28;20654;-51
2021/06/16 04:46:11;;;;;;;13.30;12.10;;;22.20;91.60;;;;;;5050702;28;20657;-51
2021/06/16 04:48:41;;;;;;;13.90;12.53;;;22.20;91.60;;;;;;5050053;28;20654;-51
2021/06/16 04:51:08;;;;;;;12.33;11.27;;;22.20;91.70;;;;;;5049478;28;20673;-52
2021/06/16 04:53:37;;;;;;;12.50;11.43;;;22.10;91.60;;;;;;5051021;28;20653;-52
2021/06/16 04:56:05;;;;;;;13.47;12.17;;;22.20;91.60;;;;;;5050108;28;20929;-52
2021/06/16 04:58:32;;;;;;;12.90;11.80;;;22.20;91.60;;;;;;5049890;28;20705;-51
2021/06/16 05:00:59;;;;;;;12.10;10.93;;;22.20;91.60;;;;;;5035232;28;21194;-51
2021/06/16 05:03:26;;;;;;;12.77;11.70;;;22.20;91.50;;;;;;5030302;28;20662;-51
2021/06/16 05:05:54;;;;;;;12.67;11.77;;;22.20;91.50;;;;;;5037646;28;20665;-52
2021/06/16 05:08:21;;;;;;;12.50;11.40;;;22.20;91.60;;;;;;5049550;28;20687;-51
2021/06/16 05:10:49;;;;;;;12.60;11.50;;;22.20;91.60;;;;;;5042203;28;21010;-51
2021/06/16 05:13:21;;;;;;;11.90;10.80;;;22.20;91.60;;;;;;5041222;28;21055;-52
2021/06/16 05:15:49;;;;;;;12.77;11.87;;;22.20;91.60;;;;;;5050011;28;20638;-51
2021/06/16 05:18:16;;;;;;;12.00;11.00;;;22.20;91.60;;;;;;5050295;28;20913;-52
2021/06/16 05:20:43;;;;;;;13.20;11.63;;;22.20;91.60;;;;;;5044450;28;20791;-53
2021/06/16 05:23:10;;;;;;;13.10;12.03;;;22.20;91.50;;;;;;5050051;28;21431;-51
2021/06/16 05:25:38;;;;;;;13.03;12.07;;;22.20;91.50;;;;;;5049828;28;20629;-51
2021/06/16 05:28:08;;;;;;;13.93;11.33;;;22.20;91.60;;;;;;5049986;28;20658;-50
2021/06/16 05:30:36;;;;;;;13.03;12.00;;;22.20;91.70;;;;;;5035842;28;20635;-51
2021/06/16 05:33:03;;;;;;;13.80;11.27;;;22.20;91.60;;;;;;5029548;28;20630;-52
2021/06/16 05:35:31;;;;;;;12.50;11.30;;;22.20;91.70;;;;;;5029613;28;20659;-52
2021/06/16 05:37:58;;;;;;;13.10;12.00;;;22.20;91.80;;;;;;5029836;28;20699;-52
2021/06/16 05:40:25;;;;;;;13.40;12.30;;;22.30;91.90;;;;;;5041897;28;20994;-50
2021/06/16 05:42:53;;;;;;;12.23;11.27;;;22.30;91.90;;;;;;5050030;28;20911;-50
2021/06/16 05:45:21;;;;;;;12.90;11.50;;;22.40;91.80;;;;;;5049799;28;20700;-50
2021/06/16 05:47:48;;;;;;;11.90;10.73;;;22.40;91.70;;;;;;5048519;28;20715;-52
2021/06/16 05:50:16;;;;;;;13.30;12.00;;;22.40;92.00;;;;;;5049021;28;20710;-50
2021/06/16 05:52:44;;;;;;;12.83;11.60;;;22.50;91.70;;;;;;5049669;28;20658;-52
2021/06/16 05:55:12;;;;;;;12.83;11.57;;;22.50;91.60;;;;;;5049422;28;20630;-51
2021/06/16 05:57:39;;;;;;;12.67;11.57;;;22.50;91.50;;;;;;5048797;28;20650;-52
2021/06/16 06:00:08;;;;;;;15.73;11.33;;;22.60;91.50;;;;;;5038491;28;20979;-53
2021/06/16 06:02:36;;;;;;;12.10;11.10;;;22.60;91.40;;;;;;5029770;28;20716;-53
2021/06/16 06:05:04;;;;;;;12.13;11.03;;;22.60;91.30;;;;;;5029856;28;20671;-51
2021/06/16 06:07:31;;;;;;;13.03;11.97;;;22.70;91.70;;;;;;5028911;28;20656;-53
2021/06/16 06:09:58;;;;;;;14.00;12.20;;;22.70;91.30;;;;;;5041292;28;21050;-53
2021/06/16 06:12:26;;;;;;;14.70;12.40;;;22.60;91.40;;;;;;5049461;28;20651;-51
2021/06/16 06:14:53;;;;;;;12.83;11.60;;;22.60;91.40;;;;;;5049490;28;20657;-53
2021/06/16 06:17:20;;;;;;;12.10;11.17;;;22.60;91.40;;;;;;5049143;28;20658;-51
2021/06/16 06:19:49;;;;;;;11.83;10.80;;;22.60;91.40;;;;;;5043410;28;20647;-49
2021/06/16 06:22:16;;;;;;;14.07;10.93;;;22.70;91.50;;;;;;5048790;28;21001;-52
2021/06/16 06:24:43;;;;;;;11.87;10.87;;;22.70;91.60;;;;;;5048346;28;20994;-53
2021/06/16 06:27:10;;;;;;;14.10;12.67;;;22.70;91.60;;;;;;5028826;28;20651;-51
2021/06/16 06:29:39;;;;;;;12.00;10.87;;;22.70;91.40;;;;;;5034205;28;21095;-53
2021/06/16 06:32:07;;;;;;;13.30;11.97;;;22.70;91.40;;;;;;5049944;28;20626;-51
2021/06/16 06:34:36;;;;;;;13.50;12.17;;;22.70;91.30;;;;;;5048871;28;21261;-51
2021/06/16 06:37:04;;;;;;;12.67;11.37;;;22.70;91.20;;;;;;5047786;28;20654;-51
2021/06/16 06:39:35;;;;;;;14.07;12.63;;;22.80;91.40;;;;;;5047251;28;20695;-52
2021/06/16 06:42:02;;;;;;;12.10;11.23;;;22.90;91.30;;;;;;5046091;28;20625;-52
2021/06/16 06:44:29;;;;;;;12.80;11.60;;;22.90;91.20;;;;;;5058387;28;20714;-51
2021/06/16 06:46:57;;;;;;;13.90;12.60;;;23.00;90.70;;;;;;5058440;28;20649;-51
2021/06/16 06:49:24;;;;;;;11.17;10.30;;;23.00;90.80;;;;;;5054171;28;20654;-53
2021/06/16 06:51:52;;;;;;;13.30;12.10;;;23.00;90.90;;;;;;5048286;28;20631;-53
2021/06/16 06:54:20;;;;;;;13.33;12.17;;;23.00;90.60;;;;;;5045684;28;20980;-53
2021/06/16 06:56:48;;;;;;;14.53;13.37;;;23.10;90.70;;;;;;5049300;28;21170;-53
2021/06/16 06:59:15;;;;;;;11.67;10.73;;;23.10;90.80;;;;;;5043458;28;20654;-51
2021/06/16 07:01:43;;;;;;;12.80;11.50;;;23.10;90.70;;;;;;5043695;28;20681;-51
2021/06/16 07:04:10;;;;;;;13.53;12.17;;;23.10;90.70;;;;;;5048676;28;20619;-50
2021/06/16 07:06:37;;;;;;;12.63;11.63;;;23.10;90.80;;;;;;5048148;28;20638;-48
2021/06/16 07:09:06;;;;;;;14.20;12.33;;;23.10;90.90;;;;;;5048028;28;20661;-49
2021/06/16 07:11:35;;;;;;;13.47;12.33;;;23.20;90.90;;;;;;5047987;28;20633;-50
2021/06/16 07:14:03;;;;;;;11.93;11.03;;;23.30;90.80;;;;;;5048874;28;20669;-50
2021/06/16 07:16:30;;;;;;;12.17;11.27;;;23.40;90.70;;;;;;5046580;28;21051;-51
2021/06/16 07:18:57;;;;;;;12.93;11.80;;;23.40;90.80;;;;;;5048790;28;20819;-50
2021/06/16 07:21:26;;;;;;;13.23;11.93;;;23.50;90.60;;;;;;5042489;28;20691;-51
2021/06/16 07:23:53;;;;;;;13.50;12.50;;;23.50;90.50;;;;;;5029825;28;20662;-49
2021/06/16 07:26:20;;;;;;;12.70;11.53;;;23.60;90.70;;;;;;5038192;28;20980;-50
2021/06/16 07:28:49;;;;;;;13.07;12.03;;;23.70;90.60;;;;;;5050511;28;20654;-49
2021/06/16 07:31:16;;;;;;;13.17;12.00;;;23.90;89.40;;;;;;5051184;28;21186;-49
2021/06/16 07:33:43;;;;;;;14.27;12.80;;;24.00;89.30;;;;;;5048562;28;20619;-49
2021/06/16 07:36:11;;;;;;;12.60;11.27;;;24.00;89.30;;;;;;5044075;28;20736;-50
2021/06/16 07:38:38;;;;;;;12.70;11.50;;;24.20;88.90;;;;;;5051929;28;20693;-49
2021/06/16 07:41:05;;;;;;;12.10;10.90;;;24.30;87.70;;;;;;5047035;28;20631;-49
2021/06/16 07:43:33;;;;;;;12.40;11.30;;;24.50;86.70;;;;;;5032526;28;20675;-50
2021/06/16 07:46:01;;;;;;;12.67;11.60;;;24.70;86.10;;;;;;5039029;28;20657;-49
2021/06/16 07:48:28;;;;;;;13.50;11.03;;;24.90;85.80;;;;;;5050957;28;21072;-51
2021/06/16 07:50:56;;;;;;;12.10;11.00;;;25.10;85.70;;;;;;5051153;28;20665;-52
2021/06/16 07:53:23;;;;;;;13.20;10.40;;;25.20;85.30;;;;;;5051814;28;20638;-51
2021/06/16 07:55:54;;;;;;;11.80;10.90;;;25.30;85.30;;;;;;5051862;28;20698;-52
2021/06/16 07:58:25;;;;;;;12.43;11.10;;;25.50;85.00;;;;;;5052533;28;21181;-52
2021/06/16 08:00:53;;;;;;;9.93;9.20;;;25.70;84.00;;;;;;5051905;28;20682;-50
2021/06/16 08:03:21;;;;;;;11.83;10.70;;;26.00;82.40;;;;;;5051782;28;20691;-50
2021/06/16 08:05:50;;;;;;;9.53;8.73;;;26.20;81.00;;;;;;5050082;28;20726;-50
2021/06/16 08:08:18;;;;;;;9.77;8.87;;;26.30;80.40;;;;;;5041794;28;21277;-51
2021/06/16 08:10:48;;;;;;;13.03;11.27;;;26.30;80.10;;;;;;5034874;28;20613;-51
2021/06/16 08:13:15;;;;;;;11.93;11.03;;;26.40;79.70;;;;;;5051625;28;20660;-51
2021/06/16 08:15:43;;;;;;;10.57;9.57;;;26.50;78.90;;;;;;5050873;28;21028;-49
2021/06/16 08:18:12;;;;;;;9.60;8.80;;;26.70;78.00;;;;;;5051014;28;21244;-50
2021/06/16 08:20:41;;;;;;;20.50;18.70;;;26.80;76.90;;;;;;5040009;28;20784;-53
2021/06/16 08:23:08;;;;;;;10.47;9.77;;;26.90;75.90;;;;;;5051438;28;20648;-52
2021/06/16 08:25:38;;;;;;;10.63;9.63;;;27.20;75.50;;;;;;5051297;28;20692;-51
2021/06/16 08:28:05;;;;;;;10.10;9.20;;;27.30;74.30;;;;;;5051239;28;20813;-51
2021/06/16 08:30:32;;;;;;;10.53;9.57;;;27.40;73.20;;;;;;5050667;28;20665;-51
2021/06/16 08:33:03;;;;;;;10.20;9.30;;;27.50;73.00;;;;;;5050602;28;20733;-51
2021/06/16 08:35:30;;;;;;;10.10;9.10;;;27.70;71.80;;;;;;5049711;28;20708;-52
2021/06/16 08:37:59;;;;;;;9.50;8.70;;;27.70;71.20;;;;;;5050322;28;20657;-52
2021/06/16 08:40:29;;;;;;;10.00;9.23;;;27.70;71.10;;;;;;5049686;28;20653;-52
2021/06/16 08:42:56;;;;;;;10.37;9.67;;;27.70;70.80;;;;;;5050570;28;20661;-54
2021/06/16 08:45:25;;;;;;;10.73;9.33;;;27.70;70.70;;;;;;5050721;28;20658;-51
2021/06/16 08:47:55;;;;;;;9.57;8.87;;;27.70;70.50;;;;;;5050198;28;21268;-53
2021/06/16 08:50:23;;;;;;;9.40;8.60;;;27.70;70.70;;;;;;5041811;28;20631;-52
2021/06/16 08:52:50;;;;;;;14.40;9.73;;;27.70;70.40;;;;;;5051215;28;21123;-53
2021/06/16 08:55:20;;;;;;;11.20;10.00;;;27.70;69.40;;;;;;5050459;28;20980;-48
2021/06/16 08:57:48;;;;;;;10.23;8.17;;;27.70;69.50;;;;;;5049003;28;20920;-49
2021/06/16 09:00:16;;;;;;;9.83;9.10;;;27.70;69.50;;;;;;5047941;28;21137;-50
2021/06/16 09:02:43;;;;;;;10.73;9.60;;;27.70;68.20;;;;;;5049413;28;21041;-51
2021/06/16 09:05:11;;;;;;;10.17;9.27;;;27.70;68.10;;;;;;5050122;28;20622;-50
2021/06/16 09:07:40;;;;;;;10.13;8.97;;;27.70;68.50;;;;;;5047472;28;20698;-50
2021/06/16 09:10:11;;;;;;;8.87;8.07;;;27.70;68.30;;;;;;5042419;28;20650;-50
2021/06/16 09:12:43;;;;;;;9.90;9.00;;;27.70;68.10;;;;;;5039356;28;20635;-49
2021/06/16 09:15:15;;;;;;;10.23;9.43;;;27.70;66.30;;;;;;5029909;28;20653;-53
2021/06/16 09:17:42;;;;;;;8.53;7.70;;;27.80;66.30;;;;;;5050893;28;20650;-51
2021/06/16 09:20:10;;;;;;;8.90;8.33;;;27.90;66.30;;;;;;5050558;28;20689;-53
2021/06/16 09:22:38;;;;;;;8.63;7.97;;;28.10;65.70;;;;;;5050657;28;20665;-52
2021/06/16 09:25:07;;;;;;;8.80;8.20;;;28.30;64.10;;;;;;5050963;28;20630;-53
2021/06/16 09:27:44;;;;;;;9.50;8.80;;;28.60;62.50;;;;;;5049713;28;20715;-52
2021/06/16 09:30:40;;;;;;;9.10;8.40;;;28.90;61.50;;;;;;5050292;28;21217;-53
2021/06/16 09:33:16;;;;;;;8.63;7.83;;;29.30;59.80;;;;;;5051299;28;20609;-51
2021/06/16 09:35:44;;;;;;;10.23;7.97;;;29.60;58.40;;;;;;5049917;28;21071;-53
2021/06/16 09:38:14;;;;;;;7.63;7.03;;;29.90;57.50;;;;;;5050296;28;20790;-52
2021/06/16 09:40:42;;;;;;;9.20;8.40;;;30.10;56.90;;;;;;5049846;28;20701;-52
2021/06/16 09:43:12;;;;;;;8.37;7.67;;;30.30;56.10;;;;;;5033453;28;20627;-53
2021/06/16 09:45:40;;;;;;;9.90;7.90;;;30.30;55.40;;;;;;5034327;28;20661;-51
2021/06/16 09:48:24;;;;;;;7.80;7.20;;;30.20;55.20;;;;;;5050286;28;20713;-52
2021/06/16 09:50:52;;;;;;;7.93;7.33;;;30.00;54.70;;;;;;5047001;28;20782;-53
2021/06/16 09:53:20;;;;;;;8.27;7.43;;;29.90;54.60;;;;;;5050838;28;20994;-53
2021/06/16 09:55:47;;;;;;;7.57;6.87;;;29.70;54.50;;;;;;5048422;28;20649;-51
2021/06/16 09:58:19;;;;;;;8.97;7.60;;;29.50;54.00;;;;;;5050762;28;20654;-51
2021/06/16 10:00:48;;;;;;;9.23;8.53;;;29.40;54.30;;;;;;5036267;28;20654;-51
2021/06/16 10:03:17;;;;;;;13.37;8.53;;;29.30;54.30;;;;;;5050249;28;20672;-50
2021/06/16 10:06:04;;;;;;;9.10;8.20;;;29.20;54.70;;;;;;5049571;28;20663;-51
2021/06/16 10:08:34;;;;;;;8.00;7.40;;;29.10;55.10;;;;;;5041546;28;20689;-51
2021/06/16 10:11:02;;;;;;;13.57;12.30;;;29.10;54.50;;;;;;5038258;28;20618;-51
2021/06/16 10:13:31;;;;;;;9.20;8.50;;;29.00;54.00;;;;;;5050541;28;20680;-52
2021/06/16 10:15:59;;;;;;;8.97;8.23;;;29.00;53.60;;;;;;5049195;28;20649;-51
2021/06/16 10:18:32;;;;;;;8.30;7.70;;;28.90;53.40;;;;;;5049463;28;20674;-51
2021/06/16 10:21:00;;;;;;;9.53;7.50;;;28.90;54.00;;;;;;5048657;28;20669;-52
2021/06/16 10:23:29;;;;;;;7.77;7.17;;;28.90;54.30;;;;;;5049230;28;20665;-51
2021/06/16 10:26:00;;;;;;;6.83;6.13;;;28.90;53.90;;;;;;5049802;28;20622;-53
2021/06/16 10:28:31;;;;;;;7.57;6.97;;;28.90;53.60;;;;;;5048559;28;20684;-55
2021/06/16 10:31:06;;;;;;;6.90;6.30;;;28.90;53.70;;;;;;5034908;28;20650;-54
2021/06/16 10:33:38;;;;;;;8.07;7.37;;;29.00;53.60;;;;;;5049408;28;20637;-53
2021/06/16 10:36:17;;;;;;;6.80;6.30;;;29.00;53.00;;;;;;5049422;28;20629;-51
2021/06/16 10:38:59;;;;;;;7.77;6.97;;;29.10;53.00;;;;;;5049002;28;20954;-53
2021/06/16 10:41:54;;;;;;;9.07;8.17;;;29.10;52.80;;;;;;5049412;28;20788;-53
2021/06/16 10:44:21;;;;;;;6.33;5.83;;;29.10;52.60;;;;;;5049062;28;20748;-50
2021/06/16 10:46:53;;;;;;;6.97;6.47;;;29.20;52.30;;;;;;5049119;28;20633;-50
2021/06/16 10:49:54;;;;;;;7.90;7.23;;;29.20;51.90;;;;;;5049031;28;20629;-51
2021/06/16 10:52:29;;;;;;;7.47;6.83;;;29.30;51.50;;;;;;5048150;28;20653;-52
2021/06/16 10:54:57;;;;;;;7.80;7.20;;;29.30;51.30;;;;;;5048751;28;20622;-51
2021/06/16 10:57:25;;;;;;;6.50;6.00;;;29.30;50.50;;;;;;5048781;28;20642;-51
2021/06/16 11:00:08;;;;;;;7.43;5.63;;;29.40;50.10;;;;;;5047423;28;20989;-51
2021/06/16 11:03:01;;;;;;;7.73;6.70;;;29.40;50.40;;;;;;5029893;28;20619;-50
2021/06/16 11:05:38;;;;;;;6.57;6.07;;;29.40;50.00;;;;;;5025097;28;20779;-54
2021/06/16 11:08:14;;;;;;;7.10;6.40;;;29.40;49.90;;;;;;5047818;28;20950;-56
2021/06/16 11:10:54;;;;;;;5.17;4.73;;;29.40;49.70;;;;;;5038019;28;20617;-54
2021/06/16 11:13:36;;;;;;;5.87;5.47;;;29.50;49.30;;;;;;5052576;28;20988;-54
2021/06/16 11:16:30;;;;;;;6.43;5.70;;;29.50;48.50;;;;;;5052538;28;20617;-58
2021/06/16 11:19:36;;;;;;;7.70;5.50;;;29.60;46.90;;;;;;5053796;28;20708;-58
2021/06/16 11:22:22;;;;;;;5.70;5.07;;;29.70;46.40;;;;;;5047396;28;20654;-57
2021/06/16 11:25:10;;;;;;;6.40;5.93;;;29.80;45.30;;;;;;5053285;28;20752;-58
2021/06/16 11:28:04;;;;;;;10.93;8.37;;;29.90;45.10;;;;;;5032638;28;21038;-56
2021/06/16 11:30:44;;;;;;;6.00;5.50;;;30.00;44.80;;;;;;5035627;28;21254;-52
2021/06/16 11:33:34;;;;;;;6.67;6.07;;;30.00;44.80;;;;;;5053167;28;20659;-51
2021/06/16 11:36:06;;;;;;;6.87;5.70;;;30.20;44.30;;;;;;5047594;28;20630;-51
2021/06/16 11:38:36;;;;;;;8.73;5.00;;;30.20;43.30;;;;;;5053124;28;20653;-59
2021/06/16 11:41:07;;;;;;;7.20;5.83;;;30.30;43.30;;;;;;5051846;28;21017;-54
2021/06/16 11:43:39;;;;;;;6.03;5.30;;;30.40;43.20;;;;;;5053278;28;20614;-52
2021/06/16 11:46:13;;;;;;;5.50;4.90;;;30.50;43.10;;;;;;5051378;28;20989;-50
2021/06/16 11:48:40;;;;;;;6.23;5.53;;;30.60;42.80;;;;;;5051783;28;20692;-52
2021/06/16 11:51:09;;;;;;;7.33;5.10;;;30.60;41.80;;;;;;5051579;28;21253;-51
2021/06/16 11:53:38;;;;;;;5.93;5.40;;;30.60;41.80;;;;;;5051749;28;21174;-52
2021/06/16 11:56:07;;;;;;;14.30;4.90;;;30.70;42.10;;;;;;5051297;28;20973;-53
2021/06/16 11:58:35;;;;;;;6.77;6.17;;;30.70;41.80;;;;;;5052675;28;20705;-57
2021/06/16 12:01:13;;;;;;;5.07;4.67;;;30.80;42.00;;;;;;5052127;28;20736;-53
2021/06/16 12:03:41;;;;;;;5.97;5.37;;;30.90;41.10;;;;;;5052219;28;20703;-52
2021/06/16 12:06:12;;;;;;;4.83;4.43;;;30.90;41.20;;;;;;5052028;28;20634;-53
2021/06/16 12:08:40;;;;;;;5.17;4.77;;;30.90;40.50;;;;;;5050543;28;20784;-52
2021/06/16 12:11:18;;;;;;;5.43;5.00;;;30.80;40.50;;;;;;5053063;28;20713;-52
2021/06/16 12:13:59;;;;;;;5.97;5.47;;;30.70;40.80;;;;;;5051790;28;20715;-52
2021/06/16 12:16:32;;;;;;;4.90;4.53;;;30.70;41.30;;;;;;5041396;28;20680;-53
2021/06/16 12:19:15;;;;;;;5.10;4.70;;;30.70;41.40;;;;;;5032506;28;21261;-52
2021/06/16 12:21:56;;;;;;;5.70;5.00;;;30.80;41.30;;;;;;5051913;28;20649;-53
2021/06/16 12:24:25;;;;;;;4.47;3.83;;;30.80;41.30;;;;;;5049645;28;20641;-52
2021/06/16 12:27:07;;;;;;;3.43;3.20;;;30.90;38.40;;;;;;5051622;28;20657;-51
2021/06/16 12:29:36;;;;;;;3.60;3.10;;;30.90;37.00;;;;;;5051552;28;20679;-53
2021/06/16 12:32:04;;;;;;;3.90;3.60;;;30.90;36.70;;;;;;5052133;28;20653;-53
2021/06/16 12:34:34;;;;;;;8.73;5.13;;;30.90;36.50;;;;;;5051259;28;20650;-54
2021/06/16 12:37:08;;;;;;;5.00;4.50;;;30.90;36.20;;;;;;5051479;28;20681;-52
2021/06/16 12:39:35;;;;;;;5.63;3.47;;;30.90;36.80;;;;;;5050664;28;20669;-53
2021/06/16 12:42:06;;;;;;;4.47;4.07;;;30.90;36.50;;;;;;5049943;28;20646;-53
2021/06/16 12:44:38;;;;;;;3.93;3.60;;;30.90;36.00;;;;;;5051424;28;20645;-55